createdAt,value
2023-01-22T00:01:25.281Z,24.50
2023-01-22T00:03:54.977Z,32.00
2023-01-22T00:06:24.043Z,29.00
2023-01-22T00:08:53.195Z,32.00
2023-01-22T00:11:21.346Z,26.50
2023-01-22T00:13:49.167Z,27.00
2023-01-22T00:16:18.995Z,25.67
2023-01-22T00:18:47.726Z,21.67
2023-01-22T00:21:15.530Z,31.50
2023-01-22T00:23:43.232Z,25.00
2023-01-22T00:26:15.735Z,27.50
2023-01-22T00:28:47.902Z,26.00
2023-01-22T00:31:17.392Z,23.50
2023-01-22T00:33:47.985Z,61.00
2023-01-22T00:36:22.784Z,33.00
2023-01-22T00:38:52.862Z,56.67
2023-01-22T00:41:22.664Z,47.00
2023-01-22T00:43:52.771Z,45.00
2023-01-22T00:46:23.051Z,90.67
2023-01-22T00:48:52.673Z,70.00
2023-01-22T00:51:22.225Z,42.33
2023-01-22T00:53:51.013Z,53.00
2023-01-22T00:56:19.681Z,26.50
2023-01-22T00:58:47.615Z,28.50
2023-01-22T01:01:16.889Z,30.00
2023-01-22T01:03:44.677Z,29.00
2023-01-22T01:06:21.615Z,37.00
2023-01-22T01:08:51.038Z,40.00
2023-01-22T01:11:23.390Z,27.00
2023-01-22T01:13:53.321Z,33.00
2023-01-22T01:16:30.341Z,40.67
2023-01-22T01:19:10.175Z,35.50
2023-01-22T01:21:39.228Z,29.00
2023-01-22T01:24:09.637Z,37.50
2023-01-22T01:26:41.228Z,31.50
2023-01-22T01:29:10.954Z,28.00
2023-01-22T01:31:40.082Z,26.50
2023-01-22T01:34:09.004Z,29.67
2023-01-22T01:36:48.821Z,24.33
2023-01-22T01:39:17.641Z,21.00
2023-01-22T01:41:45.498Z,20.50
2023-01-22T01:44:22.270Z,25.33
2023-01-22T01:47:12.824Z,24.50
2023-01-22T01:49:53.591Z,20.00
2023-01-22T01:52:22.276Z,25.00
2023-01-22T01:54:56.819Z,28.33
2023-01-22T01:57:32.125Z,26.33
2023-01-22T02:00:02.294Z,21.50
2023-01-22T02:02:29.982Z,17.00
2023-01-22T02:04:58.830Z,20.00
2023-01-22T02:07:26.706Z,21.00
2023-01-22T02:09:54.409Z,21.50
2023-01-22T02:12:23.191Z,15.00
2023-01-22T02:14:53.831Z,18.67
2023-01-22T02:17:23.241Z,18.33
2023-01-22T02:19:51.798Z,16.00
2023-01-22T02:22:33.940Z,14.00
2023-01-22T02:25:01.888Z,19.50
2023-01-22T02:27:30.523Z,27.67
2023-01-22T02:29:59.127Z,16.67
2023-01-22T02:32:29.075Z,18.67
2023-01-22T02:34:57.389Z,26.00
2023-01-22T02:37:25.134Z,21.00
2023-01-22T02:39:53.765Z,17.67
2023-01-22T02:42:21.533Z,17.50
2023-01-22T02:44:50.310Z,17.50
2023-01-22T02:47:19.249Z,22.67
2023-01-22T02:49:48.082Z,27.67
2023-01-22T02:52:16.646Z,17.67
2023-01-22T02:54:44.377Z,18.00
2023-01-22T02:57:13.025Z,17.67
2023-01-22T02:59:41.631Z,20.33
2023-01-22T03:02:09.419Z,16.50
2023-01-22T03:04:37.592Z,23.50
2023-01-22T03:07:06.458Z,18.00
2023-01-22T03:09:35.022Z,17.67
2023-01-22T03:12:02.971Z,20.00
2023-01-22T03:14:49.394Z,22.00
2023-01-22T03:17:36.616Z,16.33
2023-01-22T03:20:25.206Z,19.00
2023-01-22T03:22:53.875Z,17.33
2023-01-22T03:25:21.572Z,18.00
2023-01-22T03:28:08.649Z,19.67
2023-01-22T03:30:36.343Z,18.00
2023-01-22T03:33:04.997Z,17.33
2023-01-22T03:35:32.735Z,23.50
2023-01-22T03:38:00.495Z,33.00
2023-01-22T03:40:29.157Z,27.00
2023-01-22T03:42:58.871Z,95.33
2023-01-22T03:45:27.551Z,56.50
2023-01-22T03:47:56.217Z,34.00
2023-01-22T03:50:23.928Z,29.50
2023-01-22T03:52:52.492Z,22.67
2023-01-22T03:55:20.522Z,27.00
2023-01-22T03:57:48.235Z,19.00
2023-01-22T04:00:16.716Z,27.00
2023-01-22T04:02:44.613Z,13.50
2023-01-22T04:05:13.263Z,22.00
2023-01-22T04:07:40.995Z,13.00
2023-01-22T04:10:11.492Z,11.80
2023-01-22T04:12:39.244Z,17.00
2023-01-22T04:15:08.740Z,13.00
2023-01-22T04:17:36.472Z,16.50
2023-01-22T04:20:05.746Z,21.00
2023-01-22T04:22:34.330Z,17.33
2023-01-22T04:25:02.085Z,28.00
2023-01-22T04:27:30.655Z,20.00
2023-01-22T04:29:58.425Z,22.00
2023-01-22T04:32:26.180Z,14.50
2023-01-22T04:34:54.731Z,21.67
2023-01-22T04:37:23.395Z,31.50
2023-01-22T04:39:52.003Z,22.67
2023-01-22T04:42:19.745Z,32.00
2023-01-22T04:44:47.552Z,30.50
2023-01-22T04:47:16.104Z,15.00
2023-01-22T04:49:43.802Z,21.00
2023-01-22T04:52:12.399Z,20.00
2023-01-22T04:54:40.120Z,20.50
2023-01-22T04:57:07.893Z,22.00
2023-01-22T04:59:36.479Z,17.67
2023-01-22T05:02:04.811Z,14.50
2023-01-22T05:04:34.042Z,19.67
2023-01-22T05:07:02.614Z,22.00
2023-01-22T05:09:30.467Z,27.00
2023-01-22T05:11:58.301Z,20.50
2023-01-22T05:14:26.029Z,22.00
2023-01-22T05:16:54.695Z,21.33
2023-01-22T05:19:22.575Z,22.50
2023-01-22T05:21:51.171Z,20.00
2023-01-22T05:24:19.791Z,23.00
2023-01-22T05:26:48.446Z,21.00
2023-01-22T05:29:17.115Z,23.00
2023-01-22T05:31:44.945Z,29.00
2023-01-22T05:34:13.655Z,21.67
2023-01-22T05:36:41.359Z,23.00
2023-01-22T05:39:09.135Z,22.00
2023-01-22T05:41:37.640Z,13.67
2023-01-22T05:44:06.699Z,19.00
2023-01-22T05:46:35.421Z,19.00
2023-01-22T05:49:03.304Z,13.00
2023-01-22T05:51:32.517Z,21.33
2023-01-22T05:54:01.815Z,16.33
2023-01-22T05:56:31.992Z,19.33
2023-01-22T05:59:00.651Z,19.00
2023-01-22T06:01:28.525Z,12.50
2023-01-22T06:03:58.171Z,20.60
2023-01-22T06:06:27.762Z,67.33
2023-01-22T06:08:57.498Z,246.00
2023-01-22T06:11:27.623Z,193.75
2023-01-22T06:13:57.416Z,332.33
2023-01-22T06:16:26.885Z,65.00
2023-01-22T06:18:55.932Z,24.67
2023-01-22T06:21:23.651Z,19.00
2023-01-22T06:23:52.270Z,48.33
2023-01-22T06:26:21.794Z,83.33
2023-01-22T06:28:53.086Z,100.00
2023-01-22T06:31:23.143Z,112.33
2023-01-22T06:33:55.037Z,126.67
2023-01-22T06:36:24.575Z,91.33
2023-01-22T06:38:54.521Z,65.67
2023-01-22T06:41:24.470Z,46.33
2023-01-22T06:43:53.200Z,69.50
2023-01-22T06:46:22.854Z,120.00
2023-01-22T06:48:52.408Z,90.67
2023-01-22T06:51:22.175Z,163.50
2023-01-22T06:53:51.743Z,60.67
2023-01-22T06:56:20.449Z,51.50
2023-01-22T06:58:48.232Z,151.00
2023-01-22T07:01:16.085Z,127.50
2023-01-22T07:03:48.499Z,72.00
2023-01-22T07:06:18.986Z,98.33
2023-01-22T07:08:47.721Z,35.00
2023-01-22T07:11:16.284Z,21.00
2023-01-22T07:13:45.891Z,45.33
2023-01-22T07:16:15.429Z,57.00
2023-01-22T07:18:45.455Z,41.33
2023-01-22T07:21:14.123Z,60.00
2023-01-22T07:23:42.864Z,36.50
2023-01-22T07:26:10.629Z,26.00
2023-01-22T07:28:38.371Z,31.50
2023-01-22T07:31:11.991Z,25.50
2023-01-22T07:33:42.467Z,76.67
2023-01-22T07:36:11.180Z,43.00
2023-01-22T07:38:38.879Z,28.50
2023-01-22T07:41:20.286Z,62.50
2023-01-22T07:43:53.311Z,27.50
2023-01-22T07:46:22.000Z,19.67
2023-01-22T07:48:49.724Z,21.00
2023-01-22T07:51:20.104Z,94.33
2023-01-22T07:53:49.745Z,102.67
2023-01-22T07:56:19.385Z,76.67
2023-01-22T07:58:48.975Z,85.33
2023-01-22T08:01:18.532Z,76.33
2023-01-22T08:03:49.069Z,49.67
2023-01-22T08:06:23.131Z,63.00
2023-01-22T08:08:51.871Z,58.50
2023-01-22T08:11:20.656Z,38.00
2023-01-22T08:13:49.410Z,42.50
2023-01-22T08:16:17.422Z,25.50
2023-01-22T08:18:45.158Z,26.00
2023-01-22T08:21:13.841Z,27.50
2023-01-22T08:23:46.653Z,39.67
2023-01-22T08:26:16.915Z,26.00
2023-01-22T08:28:45.603Z,31.00
2023-01-22T08:31:26.303Z,28.00
2023-01-22T08:33:58.826Z,36.50
2023-01-22T08:36:28.270Z,38.50
2023-01-22T08:38:57.034Z,50.50
2023-01-22T08:41:26.628Z,52.33
2023-01-22T08:43:56.062Z,42.00
2023-01-22T08:46:24.802Z,39.50
2023-01-22T08:48:53.523Z,57.50
2023-01-22T08:51:23.613Z,39.00
2023-01-22T08:53:53.218Z,49.67
2023-01-22T08:56:21.994Z,49.00
2023-01-22T08:58:52.275Z,31.00
2023-01-22T09:01:21.934Z,39.50
2023-01-22T09:03:51.462Z,57.33
2023-01-22T09:06:21.076Z,44.67
2023-01-22T09:08:49.127Z,22.00
2023-01-22T09:11:17.868Z,57.00
2023-01-22T09:13:46.606Z,51.50
2023-01-22T09:16:16.676Z,33.50
2023-01-22T09:18:45.323Z,27.00
2023-01-22T09:21:13.970Z,35.50
2023-01-22T09:23:42.706Z,34.50
2023-01-22T09:26:11.154Z,11.00
2023-01-22T09:28:39.835Z,35.00
2023-01-22T09:31:13.949Z,76.67
2023-01-22T09:33:42.989Z,62.00
2023-01-22T09:36:17.505Z,61.50
2023-01-22T09:38:47.061Z,50.33
2023-01-22T09:41:55.216Z,25.67
2023-01-22T09:44:37.810Z,26.50
2023-01-22T09:47:42.806Z,30.00
2023-01-22T09:50:32.868Z,45.50
2023-01-22T09:53:07.570Z,28.50
2023-01-22T09:55:50.188Z,39.67
2023-01-22T09:58:24.329Z,43.50
2023-01-22T10:01:04.640Z,51.50
2023-01-22T10:03:44.450Z,57.33
2023-01-22T10:06:23.072Z,37.33
2023-01-22T10:09:07.307Z,57.00
2023-01-22T10:11:38.851Z,60.67
2023-01-22T10:14:14.968Z,133.00
2023-01-22T10:16:45.876Z,79.00
2023-01-22T10:19:43.887Z,56.00
2023-01-22T10:22:24.776Z,67.00
2023-01-22T10:24:54.675Z,56.00
2023-01-22T10:27:39.456Z,72.33
2023-01-22T10:30:17.511Z,61.00
2023-01-22T10:32:58.555Z,31.50
2023-01-22T10:35:31.991Z,73.00
2023-01-22T10:38:01.321Z,53.50
2023-01-22T10:40:41.125Z,65.00
2023-01-22T10:43:20.796Z,39.50
2023-01-22T10:46:05.032Z,69.00
2023-01-22T10:48:34.801Z,62.00
2023-01-22T10:51:37.429Z,49.00
2023-01-22T10:54:39.817Z,47.00
2023-01-22T10:57:19.988Z,49.00
2023-01-22T11:00:05.955Z,39.50
2023-01-22T11:02:37.009Z,64.67
2023-01-22T11:05:30.817Z,59.00
2023-01-22T11:08:14.665Z,55.00
2023-01-22T11:10:59.883Z,62.33
2023-01-22T11:13:55.187Z,63.00
2023-01-22T11:19:35.997Z,87.50
2023-01-22T11:22:38.745Z,320.00
2023-01-22T11:25:12.827Z,68.00
2023-01-22T11:28:32.943Z,72.67
2023-01-22T11:31:22.200Z,82.33
2023-01-22T11:34:27.678Z,105.14
2023-01-22T11:37:19.834Z,66.00
2023-01-22T11:40:31.997Z,60.00
2023-01-22T11:43:26.229Z,53.33
2023-01-22T11:46:58.679Z,54.50
2023-01-22T11:50:14.721Z,43.00
2023-01-22T11:53:27.689Z,49.33
2023-01-22T11:56:14.707Z,61.33
2023-01-22T11:59:11.940Z,57.00
2023-01-22T12:02:06.232Z,79.67
2023-01-22T12:05:03.644Z,137.00
2023-01-22T12:08:05.943Z,66.67
2023-01-22T12:11:42.236Z,157.25
2023-01-22T12:14:52.584Z,102.33
2023-01-22T12:18:27.220Z,150.50
2023-01-22T12:21:35.866Z,78.00
2023-01-22T12:24:22.284Z,76.33
2023-01-22T12:27:20.579Z,99.33
2023-01-22T12:30:46.777Z,77.00
2023-01-22T12:33:27.436Z,80.00
2023-01-22T12:36:02.578Z,72.67
2023-01-22T12:39:00.962Z,55.67
2023-01-22T12:42:30.926Z,79.00
2023-01-22T12:45:33.444Z,64.33
2023-01-22T12:48:25.879Z,63.67
2023-01-22T12:50:58.522Z,61.00
2023-01-22T12:53:35.194Z,37.67
2023-01-22T12:56:11.809Z,126.25
2023-01-22T12:58:43.293Z,82.67
2023-01-22T13:01:12.974Z,63.67
2023-01-22T13:03:43.251Z,57.00
2023-01-22T13:06:31.984Z,118.25
2023-01-22T13:09:02.849Z,67.00
2023-01-22T13:11:39.302Z,77.00
2023-01-22T13:14:31.556Z,59.67
2023-01-22T13:17:26.270Z,84.33
2023-01-22T13:19:56.024Z,66.00
2023-01-22T13:22:28.467Z,76.00
2023-01-22T13:25:00.113Z,85.67
2023-01-22T13:27:38.535Z,90.00
2023-01-22T13:30:21.565Z,61.00
2023-01-22T13:32:49.786Z,156.50
2023-01-22T13:35:22.341Z,68.00
2023-01-22T13:37:52.285Z,87.33
2023-01-22T13:40:31.525Z,87.33
2023-01-22T13:43:06.925Z,89.00
2023-01-22T13:45:40.370Z,81.67
2023-01-22T13:48:18.300Z,85.67
2023-01-22T13:51:10.854Z,95.00
2023-01-22T13:53:49.359Z,45.00
2023-01-22T13:56:23.793Z,74.00
2023-01-22T13:58:52.647Z,63.00
2023-01-22T14:01:34.073Z,79.33
2023-01-22T14:04:08.242Z,56.00
2023-01-22T14:06:49.841Z,58.67
2023-01-22T14:09:33.586Z,62.00
2023-01-22T14:12:23.328Z,72.00
2023-01-22T14:14:54.283Z,77.00
2023-01-22T14:17:34.617Z,62.00
2023-01-22T14:20:04.958Z,63.00
2023-01-22T14:22:34.675Z,62.00
2023-01-22T14:25:05.406Z,64.67
2023-01-22T14:27:46.969Z,87.00
2023-01-22T14:30:21.025Z,47.00
2023-01-22T14:32:50.744Z,81.67
2023-01-22T14:35:25.079Z,88.00
2023-01-22T14:37:54.216Z,53.00
2023-01-22T14:40:26.998Z,93.33
2023-01-22T14:42:56.717Z,89.67
2023-01-22T14:45:26.265Z,77.00
2023-01-22T14:47:57.015Z,94.00
2023-01-22T14:50:27.129Z,96.33
2023-01-22T14:52:57.134Z,89.00
2023-01-22T14:55:26.826Z,62.00
2023-01-22T14:57:57.789Z,75.75
2023-01-22T15:00:28.785Z,78.33
2023-01-22T15:03:00.452Z,61.67
2023-01-22T15:05:30.334Z,101.00
2023-01-22T15:07:58.963Z,155.50
2023-01-22T15:10:26.687Z,157.00
2023-01-22T15:12:55.389Z,133.00
2023-01-22T15:15:28.746Z,138.50
2023-01-22T15:17:59.244Z,122.00
2023-01-22T15:20:29.118Z,94.50
2023-01-22T15:22:58.719Z,48.00
2023-01-22T15:25:27.471Z,54.50
2023-01-22T15:27:56.135Z,43.50
2023-01-22T15:30:24.853Z,49.00
2023-01-22T15:32:54.792Z,66.00
2023-01-22T15:35:24.228Z,56.67
2023-01-22T15:37:53.799Z,85.33
2023-01-22T15:40:23.371Z,82.67
2023-01-22T15:42:52.891Z,82.33
2023-01-22T15:45:22.381Z,77.00
2023-01-22T15:47:53.666Z,66.33
2023-01-22T15:50:23.527Z,60.00
2023-01-22T15:53:00.418Z,65.33
2023-01-22T15:55:29.977Z,73.33
2023-01-22T15:58:00.371Z,99.00
2023-01-22T16:00:31.619Z,121.50
2023-01-22T16:03:01.271Z,85.33
2023-01-22T16:05:30.723Z,57.33
2023-01-22T16:08:00.180Z,66.00
2023-01-22T16:10:29.669Z,67.00
2023-01-22T16:12:59.330Z,78.00
2023-01-22T16:15:28.915Z,83.33
2023-01-22T16:18:01.376Z,92.00
2023-01-22T16:20:31.012Z,89.00
2023-01-22T16:23:02.017Z,92.33
2023-01-22T16:25:31.529Z,85.00
2023-01-22T16:28:01.086Z,91.67
2023-01-22T16:30:30.609Z,83.33
2023-01-22T16:33:00.151Z,95.00
2023-01-22T16:35:29.795Z,96.67
2023-01-22T16:37:59.315Z,84.67
2023-01-22T16:40:28.864Z,81.33
2023-01-22T16:43:03.555Z,95.00
2023-01-22T16:45:35.520Z,84.33
2023-01-22T16:48:07.595Z,91.00
2023-01-22T16:50:37.389Z,81.33
2023-01-22T16:53:06.855Z,77.33
2023-01-22T16:55:36.391Z,84.00
2023-01-22T16:58:06.049Z,75.00
2023-01-22T17:00:35.724Z,84.33
2023-01-22T17:03:05.325Z,79.67
2023-01-22T17:05:34.827Z,81.00
2023-01-22T17:08:04.677Z,71.67
2023-01-22T17:10:36.867Z,76.33
2023-01-22T17:13:09.144Z,84.33
2023-01-22T17:15:42.300Z,82.33
2023-01-22T17:18:11.907Z,79.00
2023-01-22T17:20:50.882Z,84.00
2023-01-22T17:23:27.424Z,78.33
2023-01-22T17:25:57.102Z,82.67
2023-01-22T17:28:26.593Z,77.67
2023-01-22T17:30:56.186Z,79.67
2023-01-22T17:33:25.816Z,83.67
2023-01-22T17:36:00.704Z,89.67
2023-01-22T17:38:33.391Z,83.33
2023-01-22T17:41:18.234Z,89.33
2023-01-22T17:43:55.413Z,263.25
2023-01-22T17:46:32.216Z,158.00
2023-01-22T17:49:04.760Z,148.75
2023-01-22T17:51:35.774Z,75.33
2023-01-22T17:54:06.346Z,74.33
2023-01-22T17:56:43.134Z,91.67
2023-01-22T17:59:13.319Z,87.00
2023-01-22T18:01:42.355Z,80.33
2023-01-22T18:04:14.101Z,91.00
2023-01-22T18:06:45.654Z,69.00
2023-01-22T18:09:15.277Z,82.33
2023-01-22T18:11:44.409Z,63.00
2023-01-22T18:14:21.854Z,86.00
2023-01-22T18:16:51.479Z,82.33
2023-01-22T18:19:24.369Z,66.33
2023-01-22T18:21:54.087Z,81.00
2023-01-22T18:24:24.370Z,80.33
2023-01-22T18:26:54.982Z,85.00
2023-01-22T18:29:25.373Z,79.67
2023-01-22T18:31:55.070Z,78.33
2023-01-22T18:34:24.696Z,84.75
2023-01-22T18:36:54.247Z,73.67
2023-01-22T18:39:25.853Z,80.00
2023-01-22T18:41:55.488Z,89.00
2023-01-22T18:44:27.762Z,95.33
2023-01-22T18:46:59.749Z,85.00
2023-01-22T18:49:29.363Z,78.33
2023-01-22T18:52:01.053Z,61.00
2023-01-22T18:54:30.576Z,73.00
2023-01-22T18:57:00.033Z,78.00
2023-01-22T18:59:29.683Z,74.00
2023-01-22T19:02:00.171Z,66.50
2023-01-22T19:04:30.403Z,63.00
2023-01-22T19:07:00.714Z,56.50
2023-01-22T19:09:31.808Z,44.67
2023-01-22T19:12:01.443Z,57.00
2023-01-22T19:14:30.198Z,51.00
2023-01-22T19:16:59.906Z,57.00
2023-01-22T19:19:28.674Z,56.50
2023-01-22T19:21:58.106Z,56.00
2023-01-22T19:24:28.600Z,65.67
2023-01-22T19:27:01.511Z,57.33
2023-01-22T19:29:32.237Z,55.33
2023-01-22T19:32:01.787Z,57.67
2023-01-22T19:34:32.359Z,59.00
2023-01-22T19:37:02.701Z,51.00
2023-01-22T19:39:31.605Z,54.50
2023-01-22T19:42:05.204Z,58.00
2023-01-22T19:44:35.698Z,53.33
2023-01-22T19:47:05.414Z,56.33
2023-01-22T19:49:34.137Z,60.00
2023-01-22T19:52:06.472Z,62.00
2023-01-22T19:54:34.411Z,111.00
2023-01-22T19:57:04.886Z,87.33
2023-01-22T19:59:34.414Z,61.67
2023-01-22T20:02:04.301Z,87.33
2023-01-22T20:04:34.514Z,79.67
2023-01-22T20:07:06.138Z,89.00
2023-01-22T20:09:36.360Z,143.00
2023-01-22T20:12:08.780Z,102.00
2023-01-22T20:14:41.462Z,136.25
2023-01-22T20:17:13.140Z,91.00
2023-01-22T20:19:42.833Z,93.00
2023-01-22T20:22:12.551Z,101.00
2023-01-22T20:24:44.916Z,98.00
2023-01-22T20:27:15.906Z,104.00
2023-01-22T20:29:45.706Z,93.33
2023-01-22T20:32:16.520Z,100.00
2023-01-22T20:34:49.018Z,124.33
2023-01-22T20:37:18.774Z,122.00
2023-01-22T20:39:48.852Z,102.00
2023-01-22T20:42:18.737Z,93.33
2023-01-22T20:44:48.551Z,94.00
2023-01-22T20:47:18.132Z,86.67
2023-01-22T20:49:47.718Z,90.00
2023-01-22T20:52:17.517Z,89.33
2023-01-22T20:55:01.040Z,85.67
2023-01-22T20:57:32.370Z,91.33
2023-01-22T21:00:02.482Z,92.67
2023-01-22T21:02:32.096Z,92.67
2023-01-22T21:05:01.754Z,93.33
2023-01-22T21:07:31.262Z,89.00
2023-01-22T21:10:00.843Z,93.67
2023-01-22T21:12:30.419Z,90.67
2023-01-22T21:15:00.051Z,90.00
2023-01-22T21:17:29.587Z,75.67
2023-01-22T21:19:59.127Z,81.33
2023-01-22T21:22:28.702Z,81.33
2023-01-22T21:24:58.217Z,74.33
2023-01-22T21:27:29.075Z,70.67
2023-01-22T21:29:58.772Z,70.00
2023-01-22T21:32:30.687Z,61.50
2023-01-22T21:35:02.562Z,72.33
2023-01-22T21:37:32.369Z,62.00
2023-01-22T21:40:01.130Z,64.00
2023-01-22T21:42:49.212Z,67.00
2023-01-22T21:45:37.098Z,69.33
2023-01-22T21:48:07.015Z,65.67
2023-01-22T21:50:41.299Z,68.00
2023-01-22T21:53:12.918Z,65.00
2023-01-22T21:55:52.890Z,62.33
2023-01-22T21:58:22.959Z,53.00
2023-01-22T22:00:51.821Z,59.50
2023-01-22T22:03:20.611Z,59.00
2023-01-22T22:06:02.022Z,58.50
2023-01-22T22:08:30.615Z,60.00
2023-01-22T22:11:00.190Z,61.50
2023-01-22T22:13:28.935Z,59.00
2023-01-22T22:16:03.293Z,56.00
2023-01-22T22:18:33.070Z,39.50
2023-01-22T22:21:06.580Z,59.50
2023-01-22T22:23:37.192Z,67.00
2023-01-22T22:26:10.505Z,56.67
2023-01-22T22:28:39.266Z,54.00
2023-01-22T22:31:14.932Z,55.33
2023-01-22T22:33:49.014Z,56.33
2023-01-22T22:36:22.849Z,55.50
2023-01-22T22:38:52.605Z,61.00
2023-01-22T22:41:28.580Z,51.00
2023-01-22T22:43:57.894Z,54.50
2023-01-22T22:46:32.239Z,60.33
2023-01-22T22:49:03.124Z,50.50
2023-01-22T22:51:37.517Z,56.00
2023-01-22T22:54:16.906Z,60.67
2023-01-22T22:56:48.844Z,46.00
2023-01-22T22:59:21.025Z,54.00
2023-01-22T23:01:51.426Z,40.00
2023-01-22T23:04:20.967Z,49.00
2023-01-22T23:06:50.504Z,52.67
2023-01-22T23:09:21.732Z,43.33
2023-01-22T23:11:52.223Z,47.00
2023-01-22T23:14:22.872Z,59.00
2023-01-22T23:16:51.961Z,59.50
2023-01-22T23:19:27.022Z,41.50
2023-01-22T23:22:00.735Z,51.50
2023-01-22T23:24:31.982Z,49.00
2023-01-22T23:27:01.437Z,58.67
2023-01-22T23:29:30.172Z,40.50
2023-01-22T23:31:59.793Z,43.67
2023-01-22T23:34:28.507Z,40.50
2023-01-22T23:36:57.947Z,37.33
2023-01-22T23:39:27.507Z,38.67
2023-01-22T23:41:57.137Z,45.67
2023-01-22T23:44:26.145Z,41.50
2023-01-22T23:46:55.621Z,44.67
2023-01-22T23:49:25.072Z,39.67
2023-01-22T23:51:54.632Z,45.67
2023-01-22T23:54:24.150Z,45.33
2023-01-22T23:56:53.096Z,38.50
2023-01-22T23:59:23.657Z,40.50
